WEATHER DATA

YESTERDAY
Time Temp. Dewp. Hum. Wind dir Wind speed Wind gust Bar. 1h Prec. 24h Prec.
00:00 25.4 15.7 55 90 0.3 0.6 1020.1 0.0000 0.0000
00:10 25.4 15.7 55 135 0.3 0.6 1020.2 0.0000 0.0000
00:20 25.3 15.6 55 90 0.3 0.6 1020.2 0.0000 0.0000
00:30 25.3 15.6 55 0 0.6 1020.2 0.0000 0.0000
00:40 25.1 15.4 55 0 0.6 1020.1 0.0000 0.0000
00:50 24.9 15.2 55 135 0.3 0.6 1020 0.0000 0.0000
01:00 24.7 15.1 55 0 0.6 1019.9 0.0000 0.0000
01:11 24.6 15 55 135 0.3 0.6 1020 0.0000 0.0000
01:21 24.5 14.9 55 135 0.3 0.6 1020 0.0000 0.0000
01:31 24.4 14.8 55 180 0.3 0.6 1020 0.0000 0.0000
01:41 24.3 15 56 161 0.3 0.6 1019.9 0.0000 0.0000
01:51 24.2 15.2 57 123 0.3 0.6 1019.9 0.0000 0.0000
02:01 24.1 15.1 57 90 0.3 0.6 1019.8 0.0000 0.0000
02:11 24 15 57 0 0.6 1019.8 0.0000 0.0000
02:22 24 15 57 123 0.3 0.6 1019.7 0.0000 0.0000
02:32 23.9 15.1 58 90 0.3 0.6 1019.7 0.0000 0.0000
02:42 23.8 15 58 135 0.3 0.6 1019.6 0.0000 0.0000
03:02 23.7 14.4 56 135 0.3 0.6 1019.7 0.0000 0.0000
03:12 23.7 14.4 56 90 0.3 0.6 1019.8 0.0000 0.0000
03:22 23.6 14.3 56 135 0.3 0.6 1019.8 0.0000 0.0000
03:33 23.6 14.6 57 0 0.6 1019.7 0.0000 0.0000
03:43 23.5 14.5 57 180 0.3 0.6 1019.7 0.0000 0.0000
03:53 23.4 14.4 57 0 0.6 1019.6 0.0000 0.0000
04:02 23.4 14.4 57 90 0.3 0.6 1019.6 0.0000 0.0000
04:13 23.3 14 56 135 0.3 0.6 1019.6 0.0000 0.0000
04:23 23.3 13.8 55 90 0.3 0.6 1019.6 0.0000 0.0000
04:33 23.3 14 56 90 0.3 0.6 1019.6 0.0000 0.0000
04:44 23.2 13.4 54 127 0.3 0.6 1019.6 0.0000 0.0000
04:54 23.2 13.4 54 135 0.3 0.6 1019.5 0.0000 0.0000
05:03 23.2 12.8 52 149 0.3 0.6 1019.5 0.0000 0.0000
05:13 23.1 13.3 54 0 0.6 1019.4 0.0000 0.0000
05:24 23 13.2 54 90 0.3 0.8 1019.3 0.0000 0.0000
05:44 23 13.2 54 90 0.3 0.6 1019.3 0.0000 0.0000
05:54 22.9 12.8 53 0 0.6 1019.3 0.0000 0.0000
06:04 22.8 13 54 123 0.3 0.6 1019.3 0.0000 0.0000
06:14 22.8 13.8 57 123 0.3 0.6 1019.4 0.0000 0.0000
06:24 22.8 13.6 56 90 0.3 0.6 1019.5 0.0000 0.0000
06:35 22.8 13.3 55 135 0.3 0.6 1019.5 0.0000 0.0000
06:45 22.7 12.9 54 125 0.3 0.6 1019.5 0.0000 0.0000
06:55 22.7 12.9 54 0 0.6 1019.5 0.0000 0.0000
07:05 22.7 12.6 53 165 0.3 0.6 1019.6 0.0000 0.0000
07:15 22.6 13.1 55 135 0.3 0.6 1019.7 0.0000 0.0000
07:25 22.9 13.4 55 90 0.3 0.6 1019.6 0.0000 0.0000
07:35 22.9 13.7 56 90 0.3 0.6 1019.6 0.0000 0.0000
07:45 23 14 57 130 0.3 0.8 1019.7 0.0000 0.0000
07:56 23.5 14.2 56 129 0.3 0.6 1019.8 0.0000 0.0000
08:06 23.9 14.3 55 130 0.3 0.8 1019.9 0.0000 0.0000
08:16 23.9 14.3 55 125 0.3 0.8 1019.9 0.0000 0.0000
08:26 24 14.4 55 139 0.3 0.8 1019.9 0.0000 0.0000
08:36 24.3 14.4 54 145 0.3 0.6 1020 0.0000 0.0000
08:46 24.5 14.6 54 135 0.3 0.6 1020 0.0000 0.0000
08:56 24.5 14.9 55 129 0.3 0.6 1020 0.0000 0.0000
09:07 24.5 15.2 56 130 0.3 0.8 1020.1 0.0000 0.0000
09:17 24.3 15 56 152 0.3 0.8 1020 0.0000 0.0000
09:26 23.9 14.9 57 141 0.6 0.8 1020 0.0000 0.0000
09:37 23.8 15 58 135 0.3 0.8 1020 0.0000 0.0000
09:47 23.8 14.8 57 145 0.3 0.8 1020.1 0.0000 0.0000
09:57 23.8 14.5 56 150 0.3 0.8 1020.1 0.0000 0.0000
10:07 23.9 14.6 56 142 0.3 0.8 1020.1 0.0000 0.0000
10:18 24.3 15.2 57 151 0.3 0.8 1020.2 0.0000 0.0000
10:27 24.5 14.9 55 164 0.3 0.8 1020.2 0.0000 0.0000
10:37 24.8 15.2 55 185 0.3 0.6 1020.2 0.0000 0.0000
10:48 24.9 15 54 164 0.3 0.6 1020.2 0.0000 0.0000
10:58 25.1 14.9 53 155 0.3 0.8 1020 0.0000 0.0000
11:07 25.2 14.9 53 140 0.3 0.6 1020 0.0000 0.0000
11:17 25.3 15.3 54 146 0.3 0.8 1020 0.0000 0.0000
11:28 25.5 14.9 52 163 0.3 0.8 1019.9 0.0000 0.0000
11:38 25.7 15.1 52 159 0.3 0.8 1019.8 0.0000 0.0000
11:48 26 15.1 51 168 0.3 0.6 1019.8 0.0000 0.0000
11:58 26.2 15.3 51 144 0.3 0.8 1019.8 0.0000 0.0000
12:09 26.3 15.4 51 163 0.3 0.8 1019.7 0.0000 0.0000
12:18 26.5 15.5 51 159 0.3 0.6 1019.6 0.0000 0.0000
12:28 26.7 15.7 51 149 0.3 1.1 1019.7 0.0000 0.0000
12:39 27 15.4 49 172 0.3 0.8 1019.5 0.0000 0.0000
12:49 27.3 15.3 48 163 0.3 0.8 1019.4 0.0000 0.0000
12:59 27.5 15.5 48 161 0.3 0.6 1019.5 0.0000 0.0000
13:09 27.4 15.1 47 158 0.3 1.4 1019.4 0.0000 0.0000
13:19 27.5 15.5 48 153 0.3 0.8 1019.3 0.0000 0.0000
13:29 27.6 15.3 47 144 0.3 0.6 1019.2 0.0000 0.0000
13:39 27.8 15.5 47 138 0.3 0.8 1019 0.0000 0.0000
13:50 28 15.3 46 176 0.3 1.1 1019 0.0000 0.0000
14:00 28.1 15.4 46 149 0.3 0.8 1019 0.0000 0.0000
14:10 28.3 15.6 46 146 0.3 0.8 1018.9 0.0000 0.0000
14:19 28.2 15.1 45 148 0.6 1.1 1018.8 0.0000 0.0000
14:30 28.3 15.2 45 147 0.3 0.8 1018.7 0.0000 0.0000
14:40 28.3 15.2 45 165 0.3 1.1 1018.6 0.0000 0.0000
14:50 28.5 15.4 45 146 0.3 1.1 1018.4 0.0000 0.0000
15:00 28.6 15.5 45 150 0.3 1.1 1018.4 0.0000 0.0000
15:11 28.6 15.5 45 149 0.3 0.8 1018.3 0.0000 0.0000
15:20 28.5 15.1 44 167 0.3 1.4 1018.2 0.0000 0.0000
15:30 28.5 15.4 45 172 0.3 0.8 1018.2 0.0000 0.0000
15:41 28.6 15.2 44 158 0.3 1.1 1018.2 0.0000 0.0000
15:51 28.6 15.2 44 143 0.3 0.8 1018 0.0000 0.0000
16:01 28.7 15.6 45 147 0.3 0.8 1017.9 0.0000 0.0000
16:11 28.8 15.3 44 144 0.3 0.6 1017.8 0.0000 0.0000
16:22 28.8 15.7 45 149 0.3 0.8 1017.8 0.0000 0.0000
16:31 28.9 15.4 44 155 0.3 0.6 1017.8 0.0000 0.0000
16:41 28.9 15.1 43 160 0.3 1.1 1017.6 0.0000 0.0000
16:52 28.9 15.4 44 154 0.3 0.6 1017.5 0.0000 0.0000
17:02 29 15.5 44 168 0.3 0.8 1017.4 0.0000 0.0000
17:12 28.9 15.4 44 149 0.3 0.6 1017.3 0.0000 0.0000
17:22 28.7 14.9 43 149 0.6 1.1 1017.3 0.0000 0.0000
17:33 28.7 15.6 45 176 0.3 0.6 1017.3 0.0000 0.0000
17:43 28.6 15.5 45 167 0.3 0.8 1017.2 0.0000 0.0000
17:52 28.6 15.5 45 174 0.3 0.6 1017.1 0.0000 0.0000
18:02 28.5 15.4 45 168 0.3 0.6 1017.1 0.0000 0.0000
18:13 28.5 15.4 45 150 0.3 0.6 1017 0.0000 0.0000
18:23 28.5 15.4 45 0 0.6 1017 0.0000 0.0000
18:33 28.5 15.8 46 135 0.3 0.6 1017 0.0000 0.0000
18:43 28.4 15.3 45 149 0.3 0.6 1016.9 0.0000 0.0000
18:53 28.3 15.6 46 168 0.3 0.6 1017 0.0000 0.0000
19:03 28.3 15.6 46 161 0.3 0.6 1016.9 0.0000 0.0000
19:13 28.2 15.5 46 168 0.3 0.6 1016.9 0.0000 0.0000
19:24 28.1 16.1 48 225 0.3 0.6 1017 0.0000 0.0000
19:34 28 15.3 46 206 0.3 0.8 1017 0.0000 0.0000
19:44 27.8 15.1 46 225 0.3 0.6 1017 0.0000 0.0000
19:54 27.7 15 46 0 0.6 1017.1 0.0000 0.0000
20:04 27.6 15.6 48 135 0.3 0.6 1017.2 0.0000 0.0000
20:14 27.5 15.2 47 180 0.3 0.8 1017.2 0.0000 0.0000
20:24 27.4 15.4 48 161 0.3 0.6 1017.2 0.0000 0.0000
20:35 27.3 15.3 48 180 0.3 0.6 1017.3 0.0000 0.0000
20:45 27.2 15.6 49 171 0.3 0.6 1017.2 0.0000 0.0000
20:54 27.1 15.5 49 153 0.3 0.6 1017.4 0.0000 0.0000
21:04 27 15.4 49 135 0.3 0.8 1017.4 0.0000 0.0000
21:15 26.9 15.3 49 180 0.3 0.6 1017.5 0.0000 0.0000
21:25 26.8 15.2 49 149 0.3 0.8 1017.6 0.0000 0.0000
21:35 26.7 15.1 49 191 0.3 0.8 1017.7 0.0000 0.0000
21:45 26.7 15.4 50 161 0.3 0.6 1017.7 0.0000 0.0000
21:56 26.6 15.3 50 0 0.6 1017.7 0.0000 0.0000
22:05 26.5 15.2 50 135 0.3 0.6 1017.7 0.0000 0.0000
22:15 26.5 15.2 50 135 0.3 0.6 1017.8 0.0000 0.0000
22:26 26.4 14.8 49 153 0.3 0.6 1017.8 0.0000 0.0000
22:36 26.2 14.7 49 270 0.3 0.6 1017.8 0.0000 0.0000
22:46 26.1 14.9 50 180 0.3 0.6 1017.8 0.0000 0.0000
22:56 26 14.5 49 171 0.3 0.6 1017.8 0.0000 0.0000
23:07 25.9 14.4 49 168 0.3 0.6 1017.9 0.0000 0.0000
23:16 25.8 14.3 49 168 0.3 0.6 1017.9 0.0000 0.0000
23:26 25.7 14.2 49 168 0.3 0.6 1017.9 0.0000 0.0000
23:37 25.6 14.1 49 188 0.3 0.6 1017.9 0.0000 0.0000
23:47 25.5 14 49 173 0.3 0.8 1017.9 0.0000 0.0000
23:57 25.4 14.2 50 135 0.3 0.6 1017.9 0.0000 0.0000

DAY STATISTIC

2018-08-19
TEMPERATURE
AVERAGE
25.8
HIGH
29.0
17:02
LOW
22.6
07:15
PRESSURE
AVERAGE
1018.9
HIGH
1020.2
00:10
LOW
1016.9
18:43
DEWPOINT
AVERAGE
14.8
HIGH
16.1
19:24
LOW
12.6
07:05
HUMIDITY
AVERAGE
51
HIGH
58
02:32
LOW
43
16:41
WIND SPEED
AVERAGE
0.3
HIGH
0.6
09:26
WIND GUST
AVERAGE
0.7
HIGH
1.4
13:09
WIND DIRECTION
PREVAILING
SE
48.2%
N
0.0
NE
0.0
E
9.2
SE
48.2
S
31.2
SW
2.1
W
0.7
NW
0.0
PRECIPITATION
RAIN HOUR
0.0
RAIN DAY
0.0
TEMPERATURE (°C)
LOW
22.6
HIGH
29.0
AVERAGE
25.8
PRESSURE (hpa)
LOW
1016.9
HIGH
1020.2
AVERAGE
1018.9
DEVICE